Time;durP1;ratioP1;P1;durP2;ratioP2;P2;SDS_P1;SDS_P2;PMS_P1;PMS_P2;Temp;Humidity;BMP_temperature;BMP_pressure;BME280_temperature;BME280_humidity;BME280_pressure;Samples;Min_cycle;Max_cycle;Signal;HPM_P1;HPM_P2
2022/04/06 00:00:13;;;;;;;15.48;9.25;;;;;;;6.80;100.00;99754.84;4951527;28;20042;-77
2022/04/06 00:02:39;;;;;;;17.38;9.90;;;;;;;6.95;100.00;99758.59;4955088;28;20474;-78
2022/04/06 00:05:09;;;;;;;16.17;9.45;;;;;;;7.00;100.00;99764.16;4955615;28;20860;-78
2022/04/06 00:07:36;;;;;;;14.05;9.05;;;;;;;7.04;100.00;99750.84;4953056;28;20043;-78
2022/04/06 00:10:04;;;;;;;11.70;8.90;;;;;;;7.17;100.00;99761.72;4951486;28;20058;-77
2022/04/06 00:12:30;;;;;;;13.75;9.18;;;;;;;7.14;100.00;99760.25;4952478;28;20526;-77
2022/04/06 00:14:56;;;;;;;14.95;9.55;;;;;;;7.15;100.00;99759.25;4952358;28;20070;-77
2022/04/06 00:17:21;;;;;;;13.32;9.85;;;;;;;7.05;100.00;99763.72;4952658;28;20594;-78
2022/04/06 00:19:48;;;;;;;12.13;9.23;;;;;;;7.09;100.00;99754.66;4985376;28;20049;-76
2022/04/06 00:22:13;;;;;;;14.85;9.88;;;;;;;7.18;100.00;99753.75;4953134;28;20027;-77
2022/04/06 00:24:39;;;;;;;13.55;9.65;;;;;;;7.16;100.00;99749.66;4939663;28;20042;-77
2022/04/06 00:27:04;;;;;;;15.93;9.73;;;;;;;7.20;100.00;99761.44;4950182;28;20044;-77
2022/04/06 00:29:30;;;;;;;13.35;9.35;;;;;;;7.19;100.00;99750.16;4955162;28;20042;-77
2022/04/06 00:31:56;;;;;;;14.65;9.95;;;;;;;7.20;100.00;99757.03;4964312;28;20998;-78
2022/04/06 00:35:28;;;;;;;14.35;9.95;;;;;;;7.19;100.00;99757.19;4933523;28;20105;-77
2022/04/06 00:37:07;;;;;;;15.02;10.15;;;;;;;7.19;100.00;99747.56;4949002;28;20038;-81
2022/04/06 00:39:32;;;;;;;15.80;10.57;;;;;;;7.16;100.00;99750.47;4953021;28;20050;-78
2022/04/06 00:41:58;;;;;;;14.93;10.40;;;;;;;7.23;100.00;99753.28;4956086;28;20027;-78
2022/04/06 00:44:24;;;;;;;12.35;9.70;;;;;;;7.22;100.00;99754.28;4950618;28;20035;-78
2022/04/06 00:46:50;;;;;;;13.38;10.20;;;;;;;7.20;100.00;99749.22;4949580;28;20035;-79
2022/04/06 00:49:15;;;;;;;11.55;9.88;;;;;;;7.18;100.00;99737.28;4966208;28;20114;-78
2022/04/06 00:51:49;;;;;;;13.77;10.05;;;;;;;7.16;100.00;99745.25;4982067;28;20672;-78
2022/04/06 00:54:20;;;;;;;15.07;9.30;;;;;;;7.25;100.00;99751.34;4970469;28;20043;-80
2022/04/06 00:56:46;;;;;;;13.88;9.23;;;;;;;7.17;100.00;99740.84;4930724;28;20593;-79
2022/04/06 00:59:12;;;;;;;17.60;9.07;;;;;;;7.22;100.00;99749.06;4950385;28;20031;-80
2022/04/06 01:01:38;;;;;;;12.23;8.57;;;;;;;7.19;100.00;99742.34;4949386;28;20039;-79
2022/04/06 01:04:03;;;;;;;11.60;8.50;;;;;;;7.22;100.00;99741.25;4950714;28;20054;-78
2022/04/06 01:06:29;;;;;;;14.20;8.27;;;;;;;7.26;100.00;99741.75;4967469;28;20035;-80
2022/04/06 01:08:55;;;;;;;9.50;7.60;;;;;;;7.21;100.00;99737.81;4949164;28;20047;-77
2022/04/06 01:11:20;;;;;;;13.50;9.40;;;;;;;7.18;100.00;99748.53;4967416;28;20404;-79
2022/04/06 01:13:47;;;;;;;13.20;8.25;;;;;;;7.18;100.00;99740.72;4964328;28;20030;-80
2022/04/06 01:16:13;;;;;;;10.95;8.05;;;;;;;7.17;100.00;99728.63;4949670;28;20042;-78
2022/04/06 01:18:41;;;;;;;11.98;8.13;;;;;;;7.19;100.00;99746.75;4931508;28;20053;-79
2022/04/06 01:21:07;;;;;;;13.90;7.47;;;;;;;7.18;100.00;99732.06;4951397;28;20058;-78
2022/04/06 01:23:33;;;;;;;12.60;7.32;;;;;;;7.16;100.00;99734.84;4951517;28;20042;-78
2022/04/06 01:25:59;;;;;;;9.50;6.72;;;;;;;7.20;100.00;99740.56;4958893;28;20596;-77
2022/04/06 01:28:24;;;;;;;8.43;7.47;;;;;;;7.19;100.00;99744.13;4950864;28;20486;-78
2022/04/06 01:30:50;;;;;;;9.27;6.97;;;;;;;7.16;100.00;99737.44;4966932;28;20782;-79
2022/04/06 01:33:16;;;;;;;11.13;7.13;;;;;;;7.19;100.00;99736.31;4949830;28;20042;-79
2022/04/06 01:35:42;;;;;;;7.53;6.40;;;;;;;7.18;100.00;99745.94;4965758;28;20563;-78
2022/04/06 01:38:09;;;;;;;7.50;6.10;;;;;;;7.21;100.00;99739.59;4965316;28;20062;-77
2022/04/06 01:40:35;;;;;;;7.75;6.00;;;;;;;7.10;100.00;99735.44;4951133;28;20109;-78
2022/04/06 01:43:01;;;;;;;8.07;6.15;;;;;;;7.11;100.00;99731.84;4967257;28;20555;-80
2022/04/06 01:45:27;;;;;;;9.82;6.10;;;;;;;7.09;100.00;99731.16;4935109;28;20041;-79
2022/04/06 01:47:53;;;;;;;9.15;5.72;;;;;;;7.15;100.00;99737.59;4946306;28;20039;-78
2022/04/06 01:53:04;;;;;;;10.70;6.18;;;;;;;7.12;100.00;99728.28;4979402;28;20117;-77
2022/04/06 01:55:29;;;;;;;8.25;5.22;;;;;;;7.15;100.00;99738.38;4951692;28;20089;-78
2022/04/06 01:57:56;;;;;;;9.98;5.82;;;;;;;7.14;100.00;99728.09;4949785;28;20050;-78
2022/04/06 02:00:21;;;;;;;7.55;5.55;;;;;;;7.17;100.00;99735.63;4947181;28;20121;-77
2022/04/06 02:02:50;;;;;;;6.38;5.32;;;;;;;7.19;100.00;99744.13;4949796;28;20113;-77
2022/04/06 02:05:16;;;;;;;10.55;5.93;;;;;;;7.09;100.00;99735.56;4960709;28;20605;-78
2022/04/06 02:07:42;;;;;;;6.40;5.70;;;;;;;7.05;100.00;99736.84;4949547;28;20049;-78
2022/04/06 02:10:09;;;;;;;8.30;5.13;;;;;;;7.08;100.00;99733.91;4948591;28;20027;-79
2022/04/06 02:12:35;;;;;;;7.63;5.18;;;;;;;7.11;100.00;99738.84;4934699;28;20046;-78
2022/04/06 02:15:01;;;;;;;8.30;4.75;;;;;;;7.05;100.00;99729.84;4966444;28;20039;-78
2022/04/06 02:17:28;;;;;;;6.55;4.40;;;;;;;7.08;100.00;99731.31;4951100;28;20039;-78
2022/04/06 02:19:54;;;;;;;7.00;4.82;;;;;;;7.00;100.00;99727.66;4952044;28;20538;-79
2022/04/06 02:22:20;;;;;;;5.28;4.75;;;;;;;7.02;100.00;99727.50;4951388;28;20518;-78
2022/04/06 02:24:46;;;;;;;6.25;5.03;;;;;;;7.02;100.00;99732.72;4961085;28;20038;-76
2022/04/06 02:27:12;;;;;;;6.45;4.80;;;;;;;6.99;100.00;99728.63;4950746;28;20069;-78
2022/04/06 02:29:40;;;;;;;9.00;5.45;;;;;;;6.94;100.00;99725.66;4952253;28;20066;-79
2022/04/06 02:32:07;;;;;;;7.03;4.93;;;;;;;6.97;100.00;99706.31;4944129;28;20069;-80
2022/04/06 02:34:34;;;;;;;8.85;5.30;;;;;;;7.03;100.00;99721.34;4948602;28;20066;-79
2022/04/06 02:37:00;;;;;;;7.22;5.18;;;;;;;7.01;100.00;99718.88;4952031;28;20507;-77
2022/04/06 02:39:26;;;;;;;8.32;5.55;;;;;;;7.05;100.00;99719.41;4949751;28;20046;-79
2022/04/06 02:41:52;;;;;;;7.93;5.28;;;;;;;7.00;100.00;99726.84;4961838;28;20396;-78
2022/04/06 02:44:18;;;;;;;9.25;6.05;;;;;;;7.00;100.00;99729.44;4952936;28;20097;-78
2022/04/06 02:46:45;;;;;;;9.93;6.32;;;;;;;7.00;100.00;99719.84;4964955;28;20042;-79
2022/04/06 02:49:10;;;;;;;10.00;7.00;;;;;;;6.98;100.00;99721.78;4956450;28;20484;-77
2022/04/06 02:51:36;;;;;;;10.82;6.72;;;;;;;6.93;100.00;99712.75;4960427;28;20045;-79
2022/04/06 02:54:02;;;;;;;11.77;7.38;;;;;;;6.91;100.00;99702.50;4974804;28;20046;-77
2022/04/06 02:56:28;;;;;;;11.43;7.10;;;;;;;6.96;100.00;99715.88;4987392;28;20047;-78
2022/04/06 02:58:54;;;;;;;11.30;7.65;;;;;;;6.89;100.00;99696.59;4972305;28;20112;-79
2022/04/06 03:01:21;;;;;;;16.08;8.95;;;;;;;6.92;100.00;99708.53;4986700;28;20431;-77
2022/04/06 03:03:47;;;;;;;16.48;7.75;;;;;;;6.96;100.00;99708.06;4972667;28;20038;-78
2022/04/06 03:06:12;;;;;;;12.20;9.07;;;;;;;6.94;100.00;99702.19;4987081;28;20037;-76
2022/04/06 03:08:38;;;;;;;14.32;9.27;;;;;;;6.97;100.00;99711.50;4956902;28;20054;-77
2022/04/06 03:11:04;;;;;;;15.10;9.55;;;;;;;6.97;100.00;99698.47;4968847;28;20415;-77
2022/04/06 03:13:30;;;;;;;15.50;9.70;;;;;;;7.04;100.00;99712.53;4971839;28;20034;-76
2022/04/06 03:15:56;;;;;;;15.57;9.68;;;;;;;7.02;100.00;99706.66;4969330;28;20038;-79
2022/04/06 03:18:22;;;;;;;17.75;10.52;;;;;;;7.11;100.00;99712.78;4971638;28;20039;-77
2022/04/06 03:20:49;;;;;;;22.77;10.90;;;;;;;6.98;100.00;99698.31;4956297;28;20051;-77
2022/04/06 03:23:15;;;;;;;21.27;11.60;;;;;;;7.08;100.00;99697.41;4958825;28;20031;-76
2022/04/06 03:25:42;;;;;;;21.42;12.15;;;;;;;7.08;100.00;99707.84;4959743;28;20042;-77
2022/04/06 03:28:08;;;;;;;22.55;11.30;;;;;;;7.06;100.00;99692.34;4987901;28;20035;-76
2022/04/06 03:30:34;;;;;;;21.08;12.27;;;;;;;7.04;100.00;99694.28;4957787;28;20041;-77
2022/04/06 03:32:59;;;;;;;25.17;13.07;;;;;;;7.00;100.00;99696.38;4955702;28;20142;-77
2022/04/06 03:35:25;;;;;;;21.33;13.18;;;;;;;7.04;100.00;99689.06;4963032;28;20480;-77
2022/04/06 03:37:51;;;;;;;24.58;13.95;;;;;;;7.04;100.00;99681.25;4971219;28;20045;-78
2022/04/06 03:40:17;;;;;;;27.75;13.65;;;;;;;7.09;100.00;99692.06;4968657;28;20035;-76
2022/04/06 03:42:43;;;;;;;25.98;14.15;;;;;;;7.11;100.00;99686.69;4970383;28;20038;-78
2022/04/06 03:45:09;;;;;;;26.80;14.25;;;;;;;7.06;100.00;99686.31;4952084;28;20511;-78
2022/04/06 03:47:36;;;;;;;25.10;13.63;;;;;;;7.08;100.00;99682.59;4968879;28;20589;-79
2022/04/06 03:50:04;;;;;;;27.17;15.18;;;;;;;7.13;100.00;99682.16;4954764;28;20035;-78
2022/04/06 03:52:30;;;;;;;29.20;15.10;;;;;;;7.14;100.00;99687.22;4970379;28;20042;-79
2022/04/06 03:54:56;;;;;;;32.58;16.38;;;;;;;7.16;100.00;99680.06;4960112;28;20049;-80
2022/04/06 03:57:22;;;;;;;25.98;15.18;;;;;;;7.14;100.00;99682.00;4955596;28;20047;-79
2022/04/06 03:59:48;;;;;;;32.40;16.02;;;;;;;7.17;100.00;99686.09;4970440;28;20637;-78
2022/04/06 04:02:13;;;;;;;28.52;16.88;;;;;;;7.15;100.00;99681.03;4938063;28;20084;-79
2022/04/06 04:04:39;;;;;;;31.42;17.23;;;;;;;7.15;100.00;99667.97;4953598;28;20043;-78
2022/04/06 04:07:07;;;;;;;35.17;18.63;;;;;;;7.19;100.00;99676.31;4937392;28;20057;-78
2022/04/06 04:09:33;;;;;;;32.80;19.23;;;;;;;7.14;100.00;99668.97;4962704;28;20107;-78
2022/04/06 04:11:59;;;;;;;35.92;19.98;;;;;;;7.16;100.00;99677.44;4956739;28;20567;-79
2022/04/06 04:14:25;;;;;;;34.60;20.10;;;;;;;7.13;100.00;99669.91;4971151;28;20037;-77
2022/04/06 04:16:51;;;;;;;38.15;21.58;;;;;;;7.09;100.00;99671.19;4967977;28;20042;-78
2022/04/06 04:19:17;;;;;;;39.63;22.85;;;;;;;7.04;100.00;99660.38;4969961;28;20035;-78
2022/04/06 04:21:43;;;;;;;39.08;23.60;;;;;;;7.08;100.00;99666.94;4953134;28;20134;-76
2022/04/06 04:24:09;;;;;;;47.88;24.35;;;;;;;7.11;100.00;99661.44;4970859;28;20030;-77
2022/04/06 04:26:36;;;;;;;45.25;24.55;;;;;;;7.19;100.00;99663.28;4967727;28;20403;-78
2022/04/06 04:29:07;;;;;;;44.17;25.88;;;;;;;7.14;100.00;99665.50;4949915;28;20039;-76
2022/04/06 04:31:33;;;;;;;44.47;24.75;;;;;;;7.12;100.00;99652.66;4955225;28;20030;-77
2022/04/06 04:34:00;;;;;;;48.58;28.20;;;;;;;7.13;100.00;99658.69;4952787;28;20034;-77
2022/04/06 04:36:26;;;;;;;48.55;28.35;;;;;;;7.16;100.00;99655.78;4979249;28;20045;-76
2022/04/06 04:38:51;;;;;;;51.42;27.00;;;;;;;7.15;100.00;99652.34;4974712;28;20043;-76
2022/04/06 04:41:17;;;;;;;46.83;29.60;;;;;;;7.19;100.00;99668.50;4973450;28;20093;-77
2022/04/06 04:43:43;;;;;;;45.10;27.73;;;;;;;7.24;100.00;99658.44;4972200;28;20407;-78
2022/04/06 04:46:09;;;;;;;44.33;28.27;;;;;;;7.12;100.00;99644.84;4969325;28;20031;-75
2022/04/06 04:48:35;;;;;;;47.10;27.55;;;;;;;7.20;100.00;99663.13;4973012;28;20038;-77
2022/04/06 04:51:00;;;;;;;50.42;27.98;;;;;;;7.16;100.00;99669.63;4983657;28;20031;-77
2022/04/06 04:53:26;;;;;;;47.03;28.17;;;;;;;7.15;100.00;99664.56;4967621;28;21005;-78
2022/04/06 04:55:55;;;;;;;46.88;28.58;;;;;;;7.27;100.00;99670.34;4955185;28;20043;-77
2022/04/06 04:58:21;;;;;;;51.00;28.75;;;;;;;7.29;100.00;99660.59;4969767;28;20035;-78
2022/04/06 05:00:46;;;;;;;50.90;28.98;;;;;;;7.30;100.00;99657.03;4955329;28;20046;-78
2022/04/06 05:03:12;;;;;;;52.55;28.13;;;;;;;7.25;100.00;99648.81;4969204;28;20047;-77
2022/04/06 05:05:40;;;;;;;51.65;29.80;;;;;;;7.28;100.00;99659.78;4957701;28;20078;-76
2022/04/06 05:08:06;;;;;;;53.53;29.67;;;;;;;7.36;100.00;99657.22;4969773;28;20038;-78
2022/04/06 05:10:32;;;;;;;51.78;29.33;;;;;;;7.34;100.00;99661.75;4935918;28;20039;-78
2022/04/06 05:12:58;;;;;;;58.80;31.15;;;;;;;7.39;100.00;99662.13;4939811;28;20035;-77
2022/04/06 05:15:23;;;;;;;67.07;30.77;;;;;;;7.24;100.00;99648.00;4954775;28;20049;-78
2022/04/06 05:17:49;;;;;;;58.40;30.10;;;;;;;7.30;100.00;99660.44;4954089;28;20602;-78
2022/04/06 05:20:15;;;;;;;55.95;30.80;;;;;;;7.31;100.00;99659.47;4952832;28;20042;-79
2022/04/06 05:22:41;;;;;;;57.53;31.95;;;;;;;7.27;100.00;99645.09;4947888;28;20452;-81
2022/04/06 05:25:09;;;;;;;55.25;31.83;;;;;;;7.26;100.00;99653.06;4967426;28;20121;-77
2022/04/06 05:27:47;;;;;;;56.05;29.92;;;;;;;7.40;100.00;99642.06;4969197;28;20451;-78
2022/04/06 05:30:14;;;;;;;50.28;28.33;;;;;;;7.41;100.00;99646.34;4944167;28;20042;-79
2022/04/06 05:32:41;;;;;;;58.03;28.98;;;;;;;7.46;100.00;99645.88;4938125;28;20471;-78
2022/04/06 05:35:09;;;;;;;55.30;28.13;;;;;;;7.45;100.00;99641.63;4949619;28;20892;-78
2022/04/06 05:37:39;;;;;;;55.85;30.40;;;;;;;7.37;100.00;99653.66;4946193;28;20127;-78
2022/04/06 05:40:07;;;;;;;56.40;28.98;;;;;;;7.35;100.00;99637.34;4949679;28;20038;-78
2022/04/06 05:42:33;;;;;;;54.78;28.60;;;;;;;7.40;100.00;99647.28;4984322;28;20129;-78
2022/04/06 05:45:00;;;;;;;51.83;26.85;;;;;;;7.48;100.00;99649.13;4952116;28;20053;-77
2022/04/06 05:47:26;;;;;;;52.08;26.90;;;;;;;7.50;100.00;99649.84;4957823;28;20066;-78
2022/04/06 05:49:52;;;;;;;47.83;25.92;;;;;;;7.55;100.00;99642.34;4970921;28;20049;-77
2022/04/06 05:52:18;;;;;;;51.08;26.27;;;;;;;7.50;100.00;99640.19;4933679;28;20031;-77
2022/04/06 05:54:44;;;;;;;47.05;23.90;;;;;;;7.56;100.00;99649.22;4934217;29;20485;-77
2022/04/06 05:57:09;;;;;;;52.55;25.40;;;;;;;7.56;100.00;99644.81;4964700;28;20042;-77
2022/04/06 05:59:36;;;;;;;43.50;23.23;;;;;;;7.56;100.00;99651.81;4951719;28;20038;-77
2022/04/06 06:02:04;;;;;;;50.90;22.90;;;;;;;7.60;100.00;99651.34;4960729;28;20034;-77
2022/04/06 06:04:30;;;;;;;47.55;21.70;;;;;;;7.58;100.00;99642.03;4967395;28;20038;-77
2022/04/06 06:06:57;;;;;;;41.88;20.20;;;;;;;7.55;100.00;99648.41;4943069;28;20057;-77
2022/04/06 06:09:23;;;;;;;41.40;21.23;;;;;;;7.66;100.00;99649.91;4951431;28;20171;-77
2022/04/06 06:11:48;;;;;;;39.28;18.05;;;;;;;7.62;100.00;99632.13;4965748;28;20066;-77
2022/04/06 06:14:14;;;;;;;36.95;19.73;;;;;;;7.65;100.00;99637.00;4950995;28;20110;-76
2022/04/06 06:16:40;;;;;;;37.28;18.52;;;;;;;7.69;100.00;99647.00;4949940;28;20097;-77
2022/04/06 06:19:05;;;;;;;39.13;18.27;;;;;;;7.71;100.00;99641.63;4957943;28;20038;-76
2022/04/06 06:21:32;;;;;;;37.75;17.88;;;;;;;7.60;100.00;99648.72;4969699;28;20049;-77
2022/04/06 06:24:05;;;;;;;41.63;19.02;;;;;;;7.66;100.00;99643.88;4971395;28;20023;-77
2022/04/06 06:26:35;;;;;;;36.40;17.42;;;;;;;7.73;100.00;99644.91;4981114;28;20037;-79
2022/04/06 06:29:01;;;;;;;35.42;17.23;;;;;;;7.80;100.00;99651.16;4938613;28;20162;-77
2022/04/06 06:31:28;;;;;;;43.33;17.15;;;;;;;7.74;100.00;99639.53;4967393;28;20062;-77
2022/04/06 06:34:00;;;;;;;40.40;17.67;;;;;;;7.69;100.00;99631.34;4939913;28;20452;-77
2022/04/06 06:36:27;;;;;;;35.15;16.65;;;;;;;7.69;100.00;99630.53;4966483;28;20042;-79
2022/04/06 06:38:54;;;;;;;40.78;17.25;;;;;;;7.72;100.00;99619.75;4975888;28;20039;-78
2022/04/06 06:41:20;;;;;;;39.33;17.35;;;;;;;7.76;100.00;99621.91;4943439;28;20099;-79
2022/04/06 06:43:48;;;;;;;33.97;17.30;;;;;;;7.81;100.00;99626.66;4967172;28;20034;-78
2022/04/06 06:46:18;;;;;;;37.35;17.63;;;;;;;7.78;100.00;99611.31;4949781;28;20590;-78
2022/04/06 06:48:45;;;;;;;34.75;16.77;;;;;;;7.88;100.00;99616.44;4982703;28;20069;-78
2022/04/06 06:51:11;;;;;;;31.83;16.65;;;;;;;7.86;100.00;99615.78;4954910;28;20219;-78
2022/04/06 06:53:37;;;;;;;33.97;16.08;;;;;;;7.91;100.00;99614.31;4966316;28;20050;-79
2022/04/06 06:56:03;;;;;;;31.73;15.73;;;;;;;7.92;100.00;99615.94;4936073;28;20035;-78
2022/04/06 06:58:28;;;;;;;33.35;17.50;;;;;;;7.97;100.00;99607.66;4959182;28;20039;-78
2022/04/06 07:00:54;;;;;;;35.50;16.52;;;;;;;7.96;100.00;99604.22;4952006;28;20400;-78
2022/04/06 07:03:20;;;;;;;28.70;16.25;;;;;;;8.03;100.00;99622.69;4947102;28;20775;-77
2022/04/06 07:05:46;;;;;;;31.75;16.85;;;;;;;8.09;100.00;99614.22;4950420;28;20693;-77
2022/04/06 07:08:11;;;;;;;30.45;16.92;;;;;;;8.10;100.00;99621.09;4941703;28;20042;-78
2022/04/06 07:10:37;;;;;;;38.50;17.58;;;;;;;8.10;100.00;99617.63;4961354;28;20759;-78
2022/04/06 07:13:03;;;;;;;35.97;17.33;;;;;;;8.12;100.00;99618.31;4950000;28;20604;-77
2022/04/06 07:15:29;;;;;;;32.83;17.35;;;;;;;8.12;100.00;99613.09;4950390;28;20039;-78
2022/04/06 07:17:56;;;;;;;28.17;16.83;;;;;;;8.26;100.00;99609.06;4949899;28;20399;-78
2022/04/06 07:20:24;;;;;;;31.75;16.98;;;;;;;8.25;100.00;99604.78;4957360;28;20562;-77
2022/04/06 07:22:50;;;;;;;29.58;16.98;;;;;;;8.31;100.00;99604.16;4949701;28;20483;-76
2022/04/06 07:25:17;;;;;;;30.63;16.23;;;;;;;8.39;100.00;99602.38;4965180;28;20042;-76
2022/04/06 07:27:43;;;;;;;34.78;17.23;;;;;;;8.47;100.00;99612.06;4947796;28;20480;-77
2022/04/06 07:30:11;;;;;;;34.40;17.30;;;;;;;8.42;100.00;99603.91;4947168;28;20085;-76
2022/04/06 07:32:37;;;;;;;32.50;16.90;;;;;;;8.50;100.00;99600.47;4969697;28;20138;-77
2022/04/06 07:35:04;;;;;;;28.15;15.63;;;;;;;8.57;100.00;99597.06;4957005;28;20473;-76
2022/04/06 07:37:38;;;;;;;36.10;15.88;;;;;;;8.56;100.00;99592.81;4984455;28;20031;-77
2022/04/06 07:40:04;;;;;;;30.38;15.48;;;;;;;8.61;100.00;99589.72;4968651;28;20038;-76
2022/04/06 07:42:30;;;;;;;25.25;14.77;;;;;;;8.72;100.00;99596.41;4937898;28;20483;-78
2022/04/06 07:44:56;;;;;;;27.67;15.50;;;;;;;8.66;100.00;99591.84;4936172;28;20133;-76
2022/04/06 07:47:31;;;;;;;24.95;15.55;;;;;;;8.64;100.00;99589.38;4952371;28;20070;-76
2022/04/06 07:49:58;;;;;;;32.75;15.88;;;;;;;8.64;100.00;99592.00;4963042;28;20031;-77
2022/04/06 07:52:25;;;;;;;24.55;15.32;;;;;;;8.59;100.00;99594.28;4983568;28;20444;-78
2022/04/06 07:54:50;;;;;;;31.60;15.57;;;;;;;8.56;100.00;99577.13;4978437;28;20126;-76
2022/04/06 07:57:19;;;;;;;32.70;16.63;;;;;;;8.55;100.00;99582.50;4969078;28;20138;-76
2022/04/06 07:59:44;;;;;;;31.48;16.52;;;;;;;8.52;100.00;99591.50;4968883;28;20035;-76
2022/04/06 08:02:10;;;;;;;29.55;16.23;;;;;;;8.49;100.00;99585.78;4943040;28;20031;-76
2022/04/06 08:04:35;;;;;;;26.20;16.95;;;;;;;8.52;100.00;99588.88;4940992;28;20459;-77
2022/04/06 08:07:01;;;;;;;34.08;16.17;;;;;;;8.54;100.00;99579.09;4953176;28;20081;-77
2022/04/06 08:09:26;;;;;;;35.20;16.13;;;;;;;8.52;100.00;99588.88;4964318;28;20125;-76
2022/04/06 08:11:52;;;;;;;25.75;16.27;;;;;;;8.54;100.00;99593.94;4949192;28;20484;-76
2022/04/06 08:14:18;;;;;;;27.60;16.13;;;;;;;8.47;100.00;99592.97;4937526;28;20042;-77
2022/04/06 08:16:43;;;;;;;28.00;16.63;;;;;;;8.43;100.00;99594.25;4962134;28;20072;-77
2022/04/06 08:19:09;;;;;;;28.92;16.52;;;;;;;8.41;100.00;99588.34;4969086;28;20034;-78
2022/04/06 08:21:36;;;;;;;34.67;15.68;;;;;;;8.48;100.00;99584.97;4969273;28;20038;-76
2022/04/06 08:24:02;;;;;;;28.10;15.20;;;;;;;8.45;100.00;99585.28;4937381;28;20078;-78
2022/04/06 08:26:28;;;;;;;31.75;16.42;;;;;;;8.52;100.00;99588.06;4952936;28;20050;-76
2022/04/06 08:28:54;;;;;;;32.85;15.80;;;;;;;8.54;100.00;99589.53;4969575;28;20050;-76
2022/04/06 08:31:20;;;;;;;32.17;15.48;;;;;;;8.60;100.00;99589.88;4952472;28;20147;-77
2022/04/06 08:33:46;;;;;;;31.17;16.08;;;;;;;8.60;100.00;99588.06;4936133;28;20099;-76
2022/04/06 08:36:12;;;;;;;29.60;14.23;;;;;;;8.64;100.00;99583.34;4959188;28;20038;-77
2022/04/06 08:38:38;;;;;;;31.25;15.43;;;;;;;8.64;100.00;99583.34;4951581;28;20178;-77
2022/04/06 08:41:06;;;;;;;30.67;15.70;;;;;;;8.71;100.00;99581.72;4935750;28;20564;-77
2022/04/06 08:43:32;;;;;;;31.35;15.48;;;;;;;8.76;100.00;99585.47;4962476;28;20081;-77
2022/04/06 08:45:58;;;;;;;26.48;13.82;;;;;;;8.75;100.00;99577.78;4964316;28;20047;-76
2022/04/06 08:48:29;;;;;;;18.95;12.93;;;;;;;8.82;100.00;99577.97;4950915;28;20062;-77
2022/04/06 08:50:56;;;;;;;29.85;13.75;;;;;;;8.71;100.00;99574.69;4965246;28;20043;-76
2022/04/06 08:53:22;;;;;;;24.70;14.15;;;;;;;8.70;100.00;99570.44;4964701;28;20660;-76
2022/04/06 08:55:48;;;;;;;29.30;13.43;;;;;;;8.65;100.00;99570.13;4943570;28;20050;-77
2022/04/06 08:58:14;;;;;;;29.05;12.80;;;;;;;8.69;100.00;99587.09;4945568;28;20039;-77
2022/04/06 09:00:40;;;;;;;24.42;13.27;;;;;;;8.66;100.00;99574.34;4954938;28;20195;-77
2022/04/06 09:03:07;;;;;;;25.02;12.90;;;;;;;8.66;100.00;99571.72;4948852;28;20134;-77
2022/04/06 09:05:32;;;;;;;24.75;12.68;;;;;;;8.70;100.00;99578.28;4975913;28;20061;-77
2022/04/06 09:07:59;;;;;;;25.65;11.95;;;;;;;8.79;100.00;99576.47;4948154;28;20432;-77
2022/04/06 09:10:36;;;;;;;19.58;12.20;;;;;;;8.74;100.00;99579.59;4954029;28;20066;-76
2022/04/06 09:13:08;;;;;;;22.48;12.00;;;;;;;8.81;100.00;99582.34;4932012;28;20683;-77
2022/04/06 09:15:34;;;;;;;21.43;11.63;;;;;;;8.74;100.00;99578.78;4948492;28;20075;-77
2022/04/06 09:18:01;;;;;;;24.85;11.88;;;;;;;8.77;100.00;99578.44;4960355;28;20664;-77
2022/04/06 09:20:29;;;;;;;19.00;11.25;;;;;;;8.79;100.00;99586.13;4952837;28;20043;-77
2022/04/06 09:22:55;;;;;;;23.75;10.88;;;;;;;8.81;100.00;99592.00;4947381;28;20034;-77
2022/04/06 09:25:21;;;;;;;25.02;11.82;;;;;;;8.76;100.00;99590.72;4959333;28;20065;-79
2022/04/06 09:27:47;;;;;;;24.05;11.30;;;;;;;8.72;100.00;99578.94;4966499;28;20121;-79
2022/04/06 09:30:13;;;;;;;24.70;10.77;;;;;;;8.76;100.00;99582.88;4964323;28;20232;-76
2022/04/06 09:32:41;;;;;;;21.50;10.02;;;;;;;8.70;100.00;99585.28;4948135;28;20042;-79
2022/04/06 09:35:23;;;;;;;21.73;10.07;;;;;;;8.76;100.00;99582.88;4948265;28;20140;-78
2022/04/06 09:37:48;;;;;;;16.48;9.48;;;;;;;8.78;100.00;99582.69;4964128;28;20130;-79
2022/04/06 09:40:14;;;;;;;24.13;9.50;;;;;;;8.80;100.00;99588.59;4978715;28;20118;-77
2022/04/06 09:42:50;;;;;;;18.98;7.90;;;;;;;8.80;100.00;99585.97;4965849;28;20034;-79
2022/04/06 09:48:11;;;;;;;15.50;7.82;;;;;;;8.83;100.00;99584.81;4950616;28;20045;-78
2022/04/06 09:50:38;;;;;;;23.08;8.10;;;;;;;8.80;100.00;99587.75;4959636;28;20043;-78
2022/04/06 09:53:06;;;;;;;15.90;7.90;;;;;;;8.86;100.00;99581.88;4964967;28;20049;-80
2022/04/06 09:55:32;;;;;;;18.25;7.28;;;;;;;8.85;100.00;99572.38;4984247;28;20031;-76
2022/04/06 09:57:59;;;;;;;14.40;6.38;;;;;;;8.83;100.00;99590.03;4962857;28;20042;-79
2022/04/06 10:00:28;;;;;;;14.73;7.88;;;;;;;8.84;100.00;99579.44;4951118;28;21250;-79
2022/04/06 10:03:15;;;;;;;16.15;7.00;;;;;;;8.89;100.00;99585.00;4926349;29;20034;-77
2022/04/06 10:05:44;;;;;;;19.25;7.05;;;;;;;8.77;100.00;99584.47;4956095;28;20042;-77
2022/04/06 10:08:11;;;;;;;20.50;7.78;;;;;;;8.66;100.00;99571.72;4963941;28;20385;-78
2022/04/06 10:10:40;;;;;;;18.88;7.45;;;;;;;8.59;100.00;99583.84;4965294;28;20575;-78
2022/04/06 10:13:09;;;;;;;15.07;7.22;;;;;;;8.71;100.00;99579.09;4949426;28;20039;-79
2022/04/06 10:15:37;;;;;;;17.90;7.88;;;;;;;8.69;100.00;99583.69;4962146;28;20067;-78
2022/04/06 10:18:04;;;;;;;18.50;8.00;;;;;;;8.57;100.00;99564.88;4948069;28;20038;-78
2022/04/06 10:20:42;;;;;;;16.65;7.65;;;;;;;8.63;100.00;99576.50;4959954;28;20047;-78
2022/04/06 10:23:23;;;;;;;14.38;7.40;;;;;;;8.60;100.00;99585.47;4931348;28;20408;-77
2022/04/06 10:26:06;;;;;;;17.45;7.75;;;;;;;8.63;100.00;99568.66;4954505;28;20042;-77
2022/04/06 10:28:33;;;;;;;14.30;6.57;;;;;;;8.57;100.00;99583.19;4946005;28;20066;-77
2022/04/06 10:31:11;;;;;;;16.95;7.78;;;;;;;8.64;100.00;99572.88;4965711;28;20050;-79
2022/04/06 10:33:38;;;;;;;10.48;6.45;;;;;;;8.64;100.00;99578.91;4957484;28;20050;-78
2022/04/06 10:36:21;;;;;;;13.02;7.03;;;;;;;8.56;100.00;99571.88;4947357;28;20058;-77
2022/04/06 10:39:10;;;;;;;24.77;7.60;;;;;;;8.53;100.00;99566.16;4966699;28;20110;-77
2022/04/06 10:41:42;;;;;;;16.38;8.50;;;;;;;8.49;100.00;99567.47;4948613;28;20151;-79
2022/04/06 10:44:39;;;;;;;20.10;8.43;;;;;;;8.48;100.00;99561.44;4949540;28;20043;-78
2022/04/06 10:47:07;;;;;;;15.32;9.10;;;;;;;8.43;100.00;99562.91;4938775;28;20035;-79
2022/04/06 10:49:32;;;;;;;17.55;9.02;;;;;;;8.43;100.00;99555.06;4978508;28;20638;-78
2022/04/06 10:51:59;;;;;;;16.27;8.95;;;;;;;8.53;100.00;99553.09;4988524;28;20083;-78
2022/04/06 10:54:28;;;;;;;16.17;8.20;;;;;;;8.55;100.00;99558.97;4950223;28;20057;-77
2022/04/06 10:56:55;;;;;;;13.82;7.82;;;;;;;8.48;100.00;99552.78;4966903;28;20054;-78
2022/04/06 10:59:22;;;;;;;16.88;8.10;;;;;;;8.52;100.00;99547.06;4950553;28;20077;-78
2022/04/06 11:01:49;;;;;;;16.52;8.25;;;;;;;8.51;100.00;99535.00;4960705;28;20046;-79
2022/04/06 11:04:22;;;;;;;15.98;8.27;;;;;;;8.60;100.00;99537.59;4963355;28;20027;-77
2022/04/06 11:06:56;;;;;;;14.90;6.97;;;;;;;8.67;100.00;99528.13;4971379;28;20138;-78
2022/04/06 11:12:28;;;;;;;15.02;6.80;;;;;;;8.84;100.00;99534.97;4982189;28;20038;-78
2022/04/06 11:15:00;;;;;;;11.73;6.30;;;;;;;8.83;100.00;99525.47;4969577;28;20053;-77
2022/04/06 11:17:32;;;;;;;16.33;6.93;;;;;;;8.85;100.00;99525.31;4952526;28;20100;-78
2022/04/06 11:19:59;;;;;;;12.07;6.70;;;;;;;8.87;100.00;99524.19;4951743;28;20086;-76
2022/04/06 11:22:25;;;;;;;12.82;7.00;;;;;;;8.85;100.00;99507.03;4954891;28;20035;-79
2022/04/06 11:24:50;;;;;;;12.77;7.07;;;;;;;8.95;100.00;99518.13;4954792;28;20556;-77
2022/04/06 11:27:37;;;;;;;14.60;6.97;;;;;;;8.92;100.00;99519.28;4954875;28;20039;-77
2022/04/06 11:30:12;;;;;;;12.52;6.93;;;;;;;8.97;100.00;99526.63;4954301;28;20626;-77